sensor_id;sensor_type;location;lat;lon;timestamp;pressure;altitude;pressure_sealevel;temperature;humidity
70434;BME280;57876;47.792;12.960;2023-09-19T00:02:06;96555.16;;;18.82;66.10
70434;BME280;57876;47.792;12.960;2023-09-19T00:04:32;96561.41;;;18.82;66.05
70434;BME280;57876;47.792;12.960;2023-09-19T00:06:57;96556.72;;;18.83;66.00
70434;BME280;57876;47.792;12.960;2023-09-19T00:09:21;96566.91;;;18.82;65.95
70434;BME280;57876;47.792;12.960;2023-09-19T00:11:46;96555.16;;;18.82;66.18
70434;BME280;57876;47.792;12.960;2023-09-19T00:14:13;96552.41;;;18.82;66.17
70434;BME280;57876;47.792;12.960;2023-09-19T00:16:38;96543.41;;;18.81;65.93
70434;BME280;57876;47.792;12.960;2023-09-19T00:19:02;96541.13;;;18.83;65.96
70434;BME280;57876;47.792;12.960;2023-09-19T00:21:27;96527.75;;;18.82;66.17
70434;BME280;57876;47.792;12.960;2023-09-19T00:23:52;96538.38;;;18.83;65.89
70434;BME280;57876;47.792;12.960;2023-09-19T00:26:16;96539.16;;;18.84;66.22
70434;BME280;57876;47.792;12.960;2023-09-19T00:28:42;96523.06;;;18.82;65.95
70434;BME280;57876;47.792;12.960;2023-09-19T00:31:10;96523.84;;;18.83;65.99
70434;BME280;57876;47.792;12.960;2023-09-19T00:33:34;96533.69;;;18.84;66.39
70434;BME280;57876;47.792;12.960;2023-09-19T00:35:58;96541.13;;;18.83;66.13
70434;BME280;57876;47.792;12.960;2023-09-19T00:38:23;96532.53;;;18.85;66.12
70434;BME280;57876;47.792;12.960;2023-09-19T00:40:51;96538.72;;;18.82;66.16
70434;BME280;57876;47.792;12.960;2023-09-19T00:43:15;96548.50;;;18.83;65.92
70434;BME280;57876;47.792;12.960;2023-09-19T00:45:45;96533.69;;;18.84;66.01
70434;BME280;57876;47.792;12.960;2023-09-19T00:48:12;96554.00;;;18.83;66.24
70434;BME280;57876;47.792;12.960;2023-09-19T00:50:36;96544.66;;;18.84;66.10
70434;BME280;57876;47.792;12.960;2023-09-19T00:53:02;96548.97;;;18.85;66.06
70434;BME280;57876;47.792;12.960;2023-09-19T00:55:32;96546.13;;;18.81;66.18
70434;BME280;57876;47.792;12.960;2023-09-19T00:57:57;96556.41;;;18.84;65.67
70434;BME280;57876;47.792;12.960;2023-09-19T01:00:21;96549.22;;;18.80;65.97
70434;BME280;57876;47.792;12.960;2023-09-19T01:02:47;96550.91;;;18.84;66.18
70434;BME280;57876;47.792;12.960;2023-09-19T01:05:12;96551.25;;;18.83;66.04
70434;BME280;57876;47.792;12.960;2023-09-19T01:07:37;96554.47;;;18.85;66.09
70434;BME280;57876;47.792;12.960;2023-09-19T01:10:13;96550.91;;;18.84;65.96
70434;BME280;57876;47.792;12.960;2023-09-19T01:12:47;96557.19;;;18.85;66.17
70434;BME280;57876;47.792;12.960;2023-09-19T01:20:45;96554.00;;;18.83;66.12
70434;BME280;57876;47.792;12.960;2023-09-19T01:23:21;96560.63;;;18.82;66.12
70434;BME280;57876;47.792;12.960;2023-09-19T01:31:28;96559.47;;;18.83;66.13
70434;BME280;57876;47.792;12.960;2023-09-19T01:34:00;96560.31;;;18.83;66.17
70434;BME280;57876;47.792;12.960;2023-09-19T01:36:29;96567.69;;;18.83;65.90
70434;BME280;57876;47.792;12.960;2023-09-19T01:38:55;96562.22;;;18.83;66.04
70434;BME280;57876;47.792;12.960;2023-09-19T01:41:29;96555.16;;;18.82;66.10
70434;BME280;57876;47.792;12.960;2023-09-19T01:43:59;96560.63;;;18.82;66.23
70434;BME280;57876;47.792;12.960;2023-09-19T01:46:34;96556.31;;;18.81;66.09
70434;BME280;57876;47.792;12.960;2023-09-19T01:49:04;96558.34;;;18.84;66.16
70434;BME280;57876;47.792;12.960;2023-09-19T01:51:42;96564.97;;;18.83;65.95
70434;BME280;57876;47.792;12.960;2023-09-19T01:54:12;96561.41;;;18.82;66.06
70434;BME280;57876;47.792;12.960;2023-09-19T01:56:42;96552.41;;;18.82;66.26
70434;BME280;57876;47.792;12.960;2023-09-19T01:59:35;96563.03;;;18.83;66.17
70434;BME280;57876;47.792;12.960;2023-09-19T02:02:01;96559.84;;;18.81;66.11
70434;BME280;57876;47.792;12.960;2023-09-19T02:04:27;96556.72;;;18.83;66.11
70434;BME280;57876;47.792;12.960;2023-09-19T02:06:52;96563.72;;;18.80;65.94
70434;BME280;57876;47.792;12.960;2023-09-19T02:09:17;96559.03;;;18.81;65.98
70434;BME280;57876;47.792;12.960;2023-09-19T02:11:41;96552.78;;;18.80;66.08
70434;BME280;57876;47.792;12.960;2023-09-19T02:14:06;96542.13;;;18.79;65.83
70434;BME280;57876;47.792;12.960;2023-09-19T02:16:32;96554.34;;;18.81;66.10
70434;BME280;57876;47.792;12.960;2023-09-19T02:18:57;96551.16;;;18.79;66.12
70434;BME280;57876;47.792;12.960;2023-09-19T02:21:21;96549.22;;;18.80;66.03
70434;BME280;57876;47.792;12.960;2023-09-19T02:23:46;96567.69;;;18.83;65.83
70434;BME280;57876;47.792;12.960;2023-09-19T02:26:11;96555.94;;;18.82;66.23
70434;BME280;57876;47.792;12.960;2023-09-19T02:28:36;96554.69;;;18.80;66.10
70434;BME280;57876;47.792;12.960;2023-09-19T02:31:01;96556.72;;;18.83;66.11
70434;BME280;57876;47.792;12.960;2023-09-19T02:33:25;96555.16;;;18.82;66.09
70434;BME280;57876;47.792;12.960;2023-09-19T02:35:54;96557.44;;;18.80;66.10
70434;BME280;57876;47.792;12.960;2023-09-19T02:38:19;96560.63;;;18.82;66.03
70434;BME280;57876;47.792;12.960;2023-09-19T02:40:48;96576.28;;;18.81;66.34
70434;BME280;57876;47.792;12.960;2023-09-19T02:43:13;96567.69;;;18.83;66.07
70434;BME280;57876;47.792;12.960;2023-09-19T02:45:37;96568.53;;;18.83;66.11
70434;BME280;57876;47.792;12.960;2023-09-19T02:48:02;96574.34;;;18.82;65.92
70434;BME280;57876;47.792;12.960;2023-09-19T02:50:27;96574.69;;;18.80;65.99
70434;BME280;57876;47.792;12.960;2023-09-19T02:52:51;96577.88;;;18.82;65.86
70434;BME280;57876;47.792;12.960;2023-09-19T02:55:17;96590.78;;;18.82;65.96
70434;BME280;57876;47.792;12.960;2023-09-19T02:57:47;96590.31;;;18.80;66.00
70434;BME280;57876;47.792;12.960;2023-09-19T03:00:13;96586.44;;;18.81;65.97
70434;BME280;57876;47.792;12.960;2023-09-19T03:02:38;96580.16;;;18.80;66.11
70434;BME280;57876;47.792;12.960;2023-09-19T03:05:06;96593.06;;;18.80;66.27
70434;BME280;57876;47.792;12.960;2023-09-19T03:07:31;96591.13;;;18.80;66.36
70434;BME280;57876;47.792;12.960;2023-09-19T03:09:55;96594.19;;;18.79;66.12
70434;BME280;57876;47.792;12.960;2023-09-19T03:12:20;96595.09;;;18.83;66.03
70434;BME280;57876;47.792;12.960;2023-09-19T03:14:44;96603.69;;;18.81;66.04
70434;BME280;57876;47.792;12.960;2023-09-19T03:17:09;96594.66;;;18.81;66.01
70434;BME280;57876;47.792;12.960;2023-09-19T03:19:33;96609.94;;;18.82;66.16
70434;BME280;57876;47.792;12.960;2023-09-19T03:21:57;96603.22;;;18.79;66.43
70434;BME280;57876;47.792;12.960;2023-09-19T03:24:22;96606.06;;;18.83;66.09
70434;BME280;57876;47.792;12.960;2023-09-19T03:26:47;96602.75;;;18.77;66.32
70434;BME280;57876;47.792;12.960;2023-09-19T03:29:12;96622.50;;;18.83;66.09
70434;BME280;57876;47.792;12.960;2023-09-19T03:31:38;96618.06;;;18.78;65.85
70434;BME280;57876;47.792;12.960;2023-09-19T03:34:02;96618.16;;;18.82;66.05
70434;BME280;57876;47.792;12.960;2023-09-19T03:36:29;96620.81;;;18.78;65.99
70434;BME280;57876;47.792;12.960;2023-09-19T03:38:53;96624.34;;;18.79;66.06
70434;BME280;57876;47.792;12.960;2023-09-19T03:41:18;96626.75;;;18.80;66.17
70434;BME280;57876;47.792;12.960;2023-09-19T03:43:42;96625.94;;;18.80;65.97
70434;BME280;57876;47.792;12.960;2023-09-19T03:46:06;96621.59;;;18.79;66.01
70434;BME280;57876;47.792;12.960;2023-09-19T03:48:32;96625.25;;;18.83;66.00
70434;BME280;57876;47.792;12.960;2023-09-19T03:50:57;96618.84;;;18.79;66.42
70434;BME280;57876;47.792;12.960;2023-09-19T03:53:22;96610.63;;;18.79;66.07
70434;BME280;57876;47.792;12.960;2023-09-19T03:55:46;96621.94;;;18.77;66.10
70434;BME280;57876;47.792;12.960;2023-09-19T03:58:10;96628.66;;;18.80;66.02
70434;BME280;57876;47.792;12.960;2023-09-19T04:00:35;96629.50;;;18.80;66.09
70434;BME280;57876;47.792;12.960;2023-09-19T04:02:59;96614.53;;;18.78;66.09
70434;BME280;57876;47.792;12.960;2023-09-19T04:05:26;96629.81;;;18.79;66.09
70434;BME280;57876;47.792;12.960;2023-09-19T04:07:50;96620.00;;;18.78;65.95
70434;BME280;57876;47.792;12.960;2023-09-19T04:10:16;96620.00;;;18.78;66.20
70434;BME280;57876;47.792;12.960;2023-09-19T04:12:40;96629.03;;;18.78;66.02
70434;BME280;57876;47.792;12.960;2023-09-19T04:15:05;96631.06;;;18.81;65.99
70434;BME280;57876;47.792;12.960;2023-09-19T04:17:30;96631.41;;;18.80;65.93
70434;BME280;57876;47.792;12.960;2023-09-19T04:19:57;96631.78;;;18.78;66.20
70434;BME280;57876;47.792;12.960;2023-09-19T04:22:21;96625.13;;;18.79;66.25
70434;BME280;57876;47.792;12.960;2023-09-19T04:24:46;96627.88;;;18.79;65.98
70434;BME280;57876;47.792;12.960;2023-09-19T04:27:10;96629.34;;;18.77;66.01
70434;BME280;57876;47.792;12.960;2023-09-19T04:29:36;96636.88;;;18.80;66.08
70434;BME280;57876;47.792;12.960;2023-09-19T04:32:11;96632.09;;;18.77;65.80
70434;BME280;57876;47.792;12.960;2023-09-19T04:34:37;96630.97;;;18.78;66.04
70434;BME280;57876;47.792;12.960;2023-09-19T04:37:04;96638.03;;;18.79;65.90
70434;BME280;57876;47.792;12.960;2023-09-19T04:39:28;96634.97;;;18.80;66.10
70434;BME280;57876;47.792;12.960;2023-09-19T04:41:53;96638.03;;;18.79;65.96
70434;BME280;57876;47.792;12.960;2023-09-19T04:44:17;96641.56;;;18.79;65.91
70434;BME280;57876;47.792;12.960;2023-09-19T04:46:42;96644.69;;;18.78;65.89
70434;BME280;57876;47.792;12.960;2023-09-19T04:49:06;96640.78;;;18.79;66.07
70434;BME280;57876;47.792;12.960;2023-09-19T04:51:31;96646.94;;;18.76;65.93
70434;BME280;57876;47.792;12.960;2023-09-19T04:53:58;96656.88;;;18.80;66.18
70434;BME280;57876;47.792;12.960;2023-09-19T04:56:23;96666.69;;;18.81;65.95
70434;BME280;57876;47.792;12.960;2023-09-19T04:58:48;96671.38;;;18.81;65.96
70434;BME280;57876;47.792;12.960;2023-09-19T05:01:12;96676.41;;;18.79;66.09
70434;BME280;57876;47.792;12.960;2023-09-19T05:03:39;96679.59;;;18.81;65.93
70434;BME280;57876;47.792;12.960;2023-09-19T05:06:03;96679.94;;;18.79;66.02
70434;BME280;57876;47.792;12.960;2023-09-19T05:08:29;96676.41;;;18.79;65.99
70434;BME280;57876;47.792;12.960;2023-09-19T05:10:53;96678.66;;;18.77;66.15
70434;BME280;57876;47.792;12.960;2023-09-19T05:13:20;96679.13;;;18.79;66.12
70434;BME280;57876;47.792;12.960;2023-09-19T05:15:44;96682.22;;;18.77;66.24
70434;BME280;57876;47.792;12.960;2023-09-19T05:18:08;96699.13;;;18.79;65.75
70434;BME280;57876;47.792;12.960;2023-09-19T05:20:33;96688.16;;;18.79;66.13
70434;BME280;57876;47.792;12.960;2023-09-19T05:23:09;96686.22;;;18.80;66.14
70434;BME280;57876;47.792;12.960;2023-09-19T05:25:37;96696.03;;;18.81;66.06
70434;BME280;57876;47.792;12.960;2023-09-19T05:28:03;96694.44;;;18.80;65.75
70434;BME280;57876;47.792;12.960;2023-09-19T05:30:29;96695.25;;;18.80;66.14
70434;BME280;57876;47.792;12.960;2023-09-19T05:32:54;96697.53;;;18.78;66.12
70434;BME280;57876;47.792;12.960;2023-09-19T05:35:19;96710.06;;;18.79;66.08
70434;BME280;57876;47.792;12.960;2023-09-19T05:37:45;96701.84;;;18.79;66.01
70434;BME280;57876;47.792;12.960;2023-09-19T05:40:10;96703.81;;;18.79;65.99
70434;BME280;57876;47.792;12.960;2023-09-19T05:42:34;96710.88;;;18.80;65.96
70434;BME280;57876;47.792;12.960;2023-09-19T05:44:59;96704.94;;;18.78;65.98
70434;BME280;57876;47.792;12.960;2023-09-19T05:47:24;96714.28;;;18.77;66.28
70434;BME280;57876;47.792;12.960;2023-09-19T05:49:49;96717.03;;;18.77;65.98
70434;BME280;57876;47.792;12.960;2023-09-19T05:52:14;96729.25;;;18.79;65.99
70434;BME280;57876;47.792;12.960;2023-09-19T05:54:39;96719.44;;;18.78;66.21
70434;BME280;57876;47.792;12.960;2023-09-19T05:57:03;96722.97;;;18.79;65.64
70434;BME280;57876;47.792;12.960;2023-09-19T05:59:28;96725.72;;;18.79;66.15
70434;BME280;57876;47.792;12.960;2023-09-19T06:01:52;96732.78;;;18.80;66.18
70434;BME280;57876;47.792;12.960;2023-09-19T06:04:17;96729.63;;;18.78;66.02
70434;BME280;57876;47.792;12.960;2023-09-19T06:06:43;96732.78;;;18.80;65.96
70434;BME280;57876;47.792;12.960;2023-09-19T06:09:07;96740.22;;;18.79;66.16
70434;BME280;57876;47.792;12.960;2023-09-19T06:11:32;96735.53;;;18.80;65.98
70434;BME280;57876;47.792;12.960;2023-09-19T06:13:59;96739.41;;;18.79;66.19
70434;BME280;57876;47.792;12.960;2023-09-19T06:16:24;96745.38;;;18.81;65.98
70434;BME280;57876;47.792;12.960;2023-09-19T06:18:50;96747.66;;;18.79;66.11
70434;BME280;57876;47.792;12.960;2023-09-19T06:21:14;96738.63;;;18.78;65.76
70434;BME280;57876;47.792;12.960;2023-09-19T06:23:38;96750.38;;;18.79;66.09
70434;BME280;57876;47.792;12.960;2023-09-19T06:26:03;96740.69;;;18.81;65.93
70434;BME280;57876;47.792;12.960;2023-09-19T06:28:30;96745.22;;;18.77;66.04
70434;BME280;57876;47.792;12.960;2023-09-19T06:30:55;96750.84;;;18.81;66.11
70434;BME280;57876;47.792;12.960;2023-09-19T06:33:19;96753.59;;;18.81;65.93
70434;BME280;57876;47.792;12.960;2023-09-19T06:35:45;96747.66;;;18.79;66.01
70434;BME280;57876;47.792;12.960;2023-09-19T06:38:11;96750.84;;;18.81;65.96
70434;BME280;57876;47.792;12.960;2023-09-19T06:40:37;96751.19;;;18.79;65.94
70434;BME280;57876;47.792;12.960;2023-09-19T06:43:01;96749.22;;;18.80;65.96
70434;BME280;57876;47.792;12.960;2023-09-19T06:45:26;96751.66;;;18.81;65.96
70434;BME280;57876;47.792;12.960;2023-09-19T06:47:51;96757.81;;;18.78;66.12
70434;BME280;57876;47.792;12.960;2023-09-19T06:50:19;96761.34;;;18.79;66.08
70434;BME280;57876;47.792;12.960;2023-09-19T06:52:46;96770.03;;;18.81;65.95
70434;BME280;57876;47.792;12.960;2023-09-19T06:55:14;96765.66;;;18.80;66.10
70434;BME280;57876;47.792;12.960;2023-09-19T06:57:40;96768.88;;;18.82;66.01
70434;BME280;57876;47.792;12.960;2023-09-19T07:00:05;96771.50;;;18.78;65.95
70434;BME280;57876;47.792;12.960;2023-09-19T07:02:33;96776.63;;;18.80;66.19
70434;BME280;57876;47.792;12.960;2023-09-19T07:04:58;96780.63;;;18.82;66.16
70434;BME280;57876;47.792;12.960;2023-09-19T07:07:22;96783.72;;;18.81;65.92
70434;BME280;57876;47.792;12.960;2023-09-19T07:09:47;96780.63;;;18.82;66.50
70434;BME280;57876;47.792;12.960;2023-09-19T07:12:13;96789.66;;;18.83;66.06
70434;BME280;57876;47.792;12.960;2023-09-19T07:14:38;96785.31;;;18.82;65.95
70434;BME280;57876;47.792;12.960;2023-09-19T07:17:02;96780.53;;;18.79;65.99
70434;BME280;57876;47.792;12.960;2023-09-19T07:19:28;96781.00;;;18.81;65.95
70434;BME280;57876;47.792;12.960;2023-09-19T07:21:52;96789.22;;;18.81;66.01
70434;BME280;57876;47.792;12.960;2023-09-19T07:24:17;96789.53;;;18.79;65.88
70434;BME280;57876;47.792;12.960;2023-09-19T07:26:42;96790.34;;;18.80;66.21
70434;BME280;57876;47.792;12.960;2023-09-19T07:29:06;96799.38;;;18.80;66.12
70434;BME280;57876;47.792;12.960;2023-09-19T07:31:32;96798.56;;;18.80;65.90
70434;BME280;57876;47.792;12.960;2023-09-19T07:33:56;96802.13;;;18.80;65.93
70434;BME280;57876;47.792;12.960;2023-09-19T07:36:20;96799.38;;;18.80;66.09
70434;BME280;57876;47.792;12.960;2023-09-19T07:38:45;96802.91;;;18.81;65.88
70434;BME280;57876;47.792;12.960;2023-09-19T07:41:09;96801.28;;;18.80;66.11
70434;BME280;57876;47.792;12.960;2023-09-19T07:43:34;96806.44;;;18.81;65.91
70434;BME280;57876;47.792;12.960;2023-09-19T07:46:03;96813.88;;;18.81;65.99
70434;BME280;57876;47.792;12.960;2023-09-19T07:48:27;96804.03;;;18.80;65.91
70434;BME280;57876;47.792;12.960;2023-09-19T07:50:52;96815.00;;;18.80;65.90
70434;BME280;57876;47.792;12.960;2023-09-19T07:53:16;96817.06;;;18.83;65.95
70434;BME280;57876;47.792;12.960;2023-09-19T07:55:41;96820.47;;;18.80;65.91
70434;BME280;57876;47.792;12.960;2023-09-19T07:58:07;96824.03;;;18.80;66.09
70434;BME280;57876;47.792;12.960;2023-09-19T08:00:31;96824.84;;;18.81;65.70
70434;BME280;57876;47.792;12.960;2023-09-19T08:02:58;96824.84;;;18.81;66.04
70434;BME280;57876;47.792;12.960;2023-09-19T08:05:23;96832.38;;;18.84;65.88
70434;BME280;57876;47.792;12.960;2023-09-19T08:07:47;96830.75;;;18.83;66.02
70434;BME280;57876;47.792;12.960;2023-09-19T08:10:15;96829.84;;;18.79;66.00
70434;BME280;57876;47.792;12.960;2023-09-19T08:12:40;96820.81;;;18.78;65.88
70434;BME280;57876;47.792;12.960;2023-09-19T08:15:11;96825.16;;;18.79;66.00
70434;BME280;57876;47.792;12.960;2023-09-19T08:17:35;96823.69;;;18.82;66.03
70434;BME280;57876;47.792;12.960;2023-09-19T08:19:59;96833.06;;;18.81;65.87
70434;BME280;57876;47.792;12.960;2023-09-19T08:22:25;96826.78;;;18.80;65.91
70434;BME280;57876;47.792;12.960;2023-09-19T08:24:49;96829.97;;;18.82;66.09
70434;BME280;57876;47.792;12.960;2023-09-19T08:27:13;96829.97;;;18.82;65.76
70434;BME280;57876;47.792;12.960;2023-09-19T08:29:38;96826.09;;;18.83;65.91
70434;BME280;57876;47.792;12.960;2023-09-19T08:32:03;96822.09;;;18.81;65.80
70434;BME280;57876;47.792;12.960;2023-09-19T08:34:28;96824.84;;;18.81;66.10
70434;BME280;57876;47.792;12.960;2023-09-19T08:36:54;96822.88;;;18.81;65.88
70434;BME280;57876;47.792;12.960;2023-09-19T08:39:25;96820.63;;;18.83;65.88
70434;BME280;57876;47.792;12.960;2023-09-19T08:41:49;96831.44;;;18.80;65.90
70434;BME280;57876;47.792;12.960;2023-09-19T08:44:20;96832.38;;;18.84;65.81
70434;BME280;57876;47.792;12.960;2023-09-19T08:46:45;96827.22;;;18.82;65.89
70434;BME280;57876;47.792;12.960;2023-09-19T08:49:25;96819.78;;;18.83;65.81
70434;BME280;57876;47.792;12.960;2023-09-19T08:52:03;96831.59;;;18.83;65.92
70434;BME280;57876;47.792;12.960;2023-09-19T08:54:34;96829.16;;;18.82;65.84
70434;BME280;57876;47.792;12.960;2023-09-19T08:57:07;96830.75;;;18.83;65.81
70434;BME280;57876;47.792;12.960;2023-09-19T08:59:37;96833.50;;;18.83;65.86
70434;BME280;57876;47.792;12.960;2023-09-19T09:02:04;96831.91;;;18.82;66.05
70434;BME280;57876;47.792;12.960;2023-09-19T09:04:29;96836.25;;;18.83;65.74
70434;BME280;57876;47.792;12.960;2023-09-19T09:06:55;96832.25;;;18.80;65.91
70434;BME280;57876;47.792;12.960;2023-09-19T09:09:20;96842.53;;;18.83;65.83
70434;BME280;57876;47.792;12.960;2023-09-19T09:11:45;96838.53;;;18.81;65.82
70434;BME280;57876;47.792;12.960;2023-09-19T09:14:10;96840.47;;;18.80;65.77
70434;BME280;57876;47.792;12.960;2023-09-19T09:16:35;96833.38;;;18.79;66.20
70434;BME280;57876;47.792;12.960;2023-09-19T09:19:00;96840.13;;;18.82;65.84
70434;BME280;57876;47.792;12.960;2023-09-19T09:21:25;96838.53;;;18.81;65.95
70434;BME280;57876;47.792;12.960;2023-09-19T09:23:50;96827.56;;;18.81;65.75
70434;BME280;57876;47.792;12.960;2023-09-19T09:26:15;96825.63;;;18.81;65.87
70434;BME280;57876;47.792;12.960;2023-09-19T09:28:45;96832.69;;;18.82;65.94
70434;BME280;57876;47.792;12.960;2023-09-19T09:31:22;96833.06;;;18.81;65.85
70434;BME280;57876;47.792;12.960;2023-09-19T09:33:55;96834.66;;;18.82;65.75
70434;BME280;57876;47.792;12.960;2023-09-19T09:36:34;96829.16;;;18.82;65.78
70434;BME280;57876;47.792;12.960;2023-09-19T09:38:58;96829.16;;;18.82;65.94
70434;BME280;57876;47.792;12.960;2023-09-19T09:41:36;96828.00;;;18.83;65.88
70434;BME280;57876;47.792;12.960;2023-09-19T09:44:15;96827.69;;;18.84;65.91
70434;BME280;57876;47.792;12.960;2023-09-19T09:46:46;96831.22;;;18.85;65.91
70434;BME280;57876;47.792;12.960;2023-09-19T09:49:13;96834.75;;;18.85;66.04
70434;BME280;57876;47.792;12.960;2023-09-19T09:54:16;96833.97;;;18.85;65.58
70434;BME280;57876;47.792;12.960;2023-09-19T09:56:57;96831.69;;;18.87;65.94
70434;BME280;57876;47.792;12.960;2023-09-19T10:02:11;96829.28;;;18.85;65.84
70434;BME280;57876;47.792;12.960;2023-09-19T10:04:37;96833.97;;;18.85;66.11
70434;BME280;57876;47.792;12.960;2023-09-19T10:07:08;96830.91;;;18.86;65.65
70434;BME280;57876;47.792;12.960;2023-09-19T10:09:45;96821.41;;;18.84;65.92
70434;BME280;57876;47.792;12.960;2023-09-19T10:12:12;96824.63;;;18.86;65.91
70434;BME280;57876;47.792;12.960;2023-09-19T10:14:39;96825.41;;;18.86;66.01
70434;BME280;57876;47.792;12.960;2023-09-19T10:17:09;96833.66;;;18.86;65.83
70434;BME280;57876;47.792;12.960;2023-09-19T10:19:44;96825.28;;;18.83;65.69
70434;BME280;57876;47.792;12.960;2023-09-19T10:22:11;96833.16;;;18.84;65.87
70434;BME280;57876;47.792;12.960;2023-09-19T10:24:37;96836.38;;;18.86;65.74
70434;BME280;57876;47.792;12.960;2023-09-19T10:27:04;96818.31;;;18.85;65.80
70434;BME280;57876;47.792;12.960;2023-09-19T10:29:34;96817.06;;;18.83;65.86
70434;BME280;57876;47.792;12.960;2023-09-19T10:32:00;96834.44;;;18.87;65.81
70434;BME280;57876;47.792;12.960;2023-09-19T10:34:29;96825.41;;;18.86;65.83
70434;BME280;57876;47.792;12.960;2023-09-19T10:36:54;96826.91;;;18.84;65.68
70434;BME280;57876;47.792;12.960;2023-09-19T10:39:19;96818.69;;;18.84;65.77
70434;BME280;57876;47.792;12.960;2023-09-19T10:41:51;96830.09;;;18.86;65.82
70434;BME280;57876;47.792;12.960;2023-09-19T10:44:27;96820.63;;;18.83;66.24
70434;BME280;57876;47.792;12.960;2023-09-19T10:46:57;96818.69;;;18.84;65.81
70434;BME280;57876;47.792;12.960;2023-09-19T10:49:21;96811.94;;;18.81;65.87
70434;BME280;57876;47.792;12.960;2023-09-19T10:51:47;96813.19;;;18.84;65.80
70434;BME280;57876;47.792;12.960;2023-09-19T10:54:21;96809.66;;;18.83;65.98
70434;BME280;57876;47.792;12.960;2023-09-19T10:56:51;96803.72;;;18.81;65.79
70434;BME280;57876;47.792;12.960;2023-09-19T10:59:18;96809.31;;;18.85;65.79
70434;BME280;57876;47.792;12.960;2023-09-19T11:01:51;96806.09;;;18.83;66.08
70434;BME280;57876;47.792;12.960;2023-09-19T11:04:30;96809.97;;;18.82;65.92
70434;BME280;57876;47.792;12.960;2023-09-19T11:07:04;96803.34;;;18.83;65.73
70434;BME280;57876;47.792;12.960;2023-09-19T11:09:50;96813.66;;;18.86;65.73
70434;BME280;57876;47.792;12.960;2023-09-19T11:15:05;96806.91;;;18.83;65.83
70434;BME280;57876;47.792;12.960;2023-09-19T11:17:35;96808.19;;;18.86;65.93
70434;BME280;57876;47.792;12.960;2023-09-19T11:30:40;96808.97;;;18.86;65.90
70434;BME280;57876;47.792;12.960;2023-09-19T11:33:26;96801.56;;;18.87;65.83
70434;BME280;57876;47.792;12.960;2023-09-19T11:36:11;96808.19;;;18.86;65.70
70434;BME280;57876;47.792;12.960;2023-09-19T11:43:52;96812.50;;;18.87;65.71
70434;BME280;57876;47.792;12.960;2023-09-19T11:46:19;96803.50;;;18.86;65.58
70434;BME280;57876;47.792;12.960;2023-09-19T11:48:47;96807.03;;;18.87;65.80
70434;BME280;57876;47.792;12.960;2023-09-19T11:51:23;96806.25;;;18.86;65.78
70434;BME280;57876;47.792;12.960;2023-09-19T11:53:51;96800.28;;;18.84;65.59
70434;BME280;57876;47.792;12.960;2023-09-19T11:56:17;96800.28;;;18.84;65.62
70434;BME280;57876;47.792;12.960;2023-09-19T11:58:43;96788.53;;;18.84;65.84
70434;BME280;57876;47.792;12.960;2023-09-19T12:01:14;96790.13;;;18.85;65.70
70434;BME280;57876;47.792;12.960;2023-09-19T12:03:43;96796.06;;;18.87;65.79
70434;BME280;57876;47.792;12.960;2023-09-19T12:06:15;96794.91;;;18.88;65.74
70434;BME280;57876;47.792;12.960;2023-09-19T12:08:43;96796.41;;;18.85;65.78
70434;BME280;57876;47.792;12.960;2023-09-19T12:11:14;96787.84;;;18.87;65.54
70434;BME280;57876;47.792;12.960;2023-09-19T12:13:43;96786.25;;;18.86;65.77
70434;BME280;57876;47.792;12.960;2023-09-19T12:16:17;96788.66;;;18.87;65.81
70434;BME280;57876;47.792;12.960;2023-09-19T12:18:42;96790.59;;;18.87;65.62
70434;BME280;57876;47.792;12.960;2023-09-19T12:21:08;96798.81;;;18.87;65.83
70434;BME280;57876;47.792;12.960;2023-09-19T12:26:28;96780.78;;;18.86;65.71
70434;BME280;57876;47.792;12.960;2023-09-19T12:28:54;96790.91;;;18.85;65.63
70434;BME280;57876;47.792;12.960;2023-09-19T12:31:18;96787.06;;;18.86;65.76
70434;BME280;57876;47.792;12.960;2023-09-19T12:33:43;96790.13;;;18.85;65.79
70434;BME280;57876;47.792;12.960;2023-09-19T12:36:34;96786.25;;;18.86;65.53
70434;BME280;57876;47.792;12.960;2023-09-19T12:38:59;96790.91;;;18.85;65.94
70434;BME280;57876;47.792;12.960;2023-09-19T12:41:24;96790.59;;;18.87;65.72
70434;BME280;57876;47.792;12.960;2023-09-19T12:43:49;96787.06;;;18.86;65.77
70434;BME280;57876;47.792;12.960;2023-09-19T12:46:21;96786.25;;;18.86;65.66
70434;BME280;57876;47.792;12.960;2023-09-19T12:49:19;96786.25;;;18.86;65.88
70434;BME280;57876;47.792;12.960;2023-09-19T12:51:44;96788.53;;;18.84;65.61
70434;BME280;57876;47.792;12.960;2023-09-19T12:54:09;96782.25;;;18.83;65.78
70434;BME280;57876;47.792;12.960;2023-09-19T12:56:42;96781.91;;;18.85;65.65
70434;BME280;57876;47.792;12.960;2023-09-19T12:59:08;96786.25;;;18.86;65.84
70434;BME280;57876;47.792;12.960;2023-09-19T13:01:34;96778.03;;;18.86;65.74
70434;BME280;57876;47.792;12.960;2023-09-19T13:06:49;96781.09;;;18.84;65.85
70434;BME280;57876;47.792;12.960;2023-09-19T13:09:14;96775.31;;;18.86;65.80
70434;BME280;57876;47.792;12.960;2023-09-19T13:11:39;96765.81;;;18.83;65.56
70434;BME280;57876;47.792;12.960;2023-09-19T13:14:15;96770.63;;;18.86;65.82
70434;BME280;57876;47.792;12.960;2023-09-19T13:16:56;96773.69;;;18.85;65.72
70434;BME280;57876;47.792;12.960;2023-09-19T13:22:03;96766.59;;;18.84;65.80
70434;BME280;57876;47.792;12.960;2023-09-19T13:24:28;96765.81;;;18.83;65.71
70434;BME280;57876;47.792;12.960;2023-09-19T13:26:54;96769.00;;;18.85;65.79
70434;BME280;57876;47.792;12.960;2023-09-19T13:29:19;96766.59;;;18.84;65.79
70434;BME280;57876;47.792;12.960;2023-09-19T13:31:50;96768.56;;;18.83;65.62
70434;BME280;57876;47.792;12.960;2023-09-19T13:34:17;96769.69;;;18.82;65.81